sensor_id;sensor_type;location;lat;lon;timestamp;P1;durP1;ratioP1;P2;durP2;ratioP2
21780;SDS011;52576;53.614;9.894;2023-02-12T00:01:00;28.10;;;8.80;;
21780;SDS011;52576;53.614;9.894;2023-02-12T00:03:03;20.05;;;9.20;;
21780;SDS011;52576;53.614;9.894;2023-02-12T00:05:07;19.38;;;8.27;;
21780;SDS011;52576;53.614;9.894;2023-02-12T00:07:11;17.30;;;8.15;;
21780;SDS011;52576;53.614;9.894;2023-02-12T00:09:14;19.38;;;7.32;;
21780;SDS011;52576;53.614;9.894;2023-02-12T00:11:18;15.85;;;6.68;;
21780;SDS011;52576;53.614;9.894;2023-02-12T00:13:23;19.60;;;7.65;;
21780;SDS011;52576;53.614;9.894;2023-02-12T00:15:26;16.27;;;7.80;;
21780;SDS011;52576;53.614;9.894;2023-02-12T00:17:30;18.33;;;7.68;;
21780;SDS011;52576;53.614;9.894;2023-02-12T00:19:33;20.23;;;7.95;;
21780;SDS011;52576;53.614;9.894;2023-02-12T00:21:36;20.73;;;8.75;;
21780;SDS011;52576;53.614;9.894;2023-02-12T00:23:40;16.90;;;7.97;;
21780;SDS011;52576;53.614;9.894;2023-02-12T00:25:43;16.77;;;7.75;;
21780;SDS011;52576;53.614;9.894;2023-02-12T00:27:46;21.00;;;8.10;;
21780;SDS011;52576;53.614;9.894;2023-02-12T00:29:49;17.48;;;7.78;;
21780;SDS011;52576;53.614;9.894;2023-02-12T00:31:53;17.27;;;7.90;;
21780;SDS011;52576;53.614;9.894;2023-02-12T00:33:56;20.67;;;7.63;;
21780;SDS011;52576;53.614;9.894;2023-02-12T00:36:01;22.05;;;8.52;;
21780;SDS011;52576;53.614;9.894;2023-02-12T00:38:04;23.25;;;7.82;;
21780;SDS011;52576;53.614;9.894;2023-02-12T00:40:09;20.60;;;8.85;;
21780;SDS011;52576;53.614;9.894;2023-02-12T00:42:13;22.02;;;8.00;;
21780;SDS011;52576;53.614;9.894;2023-02-12T00:44:16;19.80;;;7.80;;
21780;SDS011;52576;53.614;9.894;2023-02-12T00:46:19;19.10;;;8.20;;
21780;SDS011;52576;53.614;9.894;2023-02-12T00:48:23;17.60;;;7.72;;
21780;SDS011;52576;53.614;9.894;2023-02-12T00:50:26;24.67;;;8.93;;
21780;SDS011;52576;53.614;9.894;2023-02-12T00:52:34;16.65;;;7.85;;
21780;SDS011;52576;53.614;9.894;2023-02-12T00:54:37;19.45;;;7.55;;
21780;SDS011;52576;53.614;9.894;2023-02-12T00:56:41;13.60;;;7.25;;
21780;SDS011;52576;53.614;9.894;2023-02-12T00:58:44;17.55;;;6.70;;
21780;SDS011;52576;53.614;9.894;2023-02-12T01:00:47;14.15;;;5.53;;
21780;SDS011;52576;53.614;9.894;2023-02-12T01:02:52;11.98;;;4.90;;
21780;SDS011;52576;53.614;9.894;2023-02-12T01:04:55;9.43;;;4.55;;
21780;SDS011;52576;53.614;9.894;2023-02-12T01:06:59;7.53;;;3.70;;
21780;SDS011;52576;53.614;9.894;2023-02-12T01:09:02;9.15;;;4.10;;
21780;SDS011;52576;53.614;9.894;2023-02-12T01:11:05;8.68;;;4.10;;
21780;SDS011;52576;53.614;9.894;2023-02-12T01:13:10;10.63;;;4.78;;
21780;SDS011;52576;53.614;9.894;2023-02-12T01:15:14;11.88;;;5.28;;
21780;SDS011;52576;53.614;9.894;2023-02-12T01:17:18;10.60;;;5.43;;
21780;SDS011;52576;53.614;9.894;2023-02-12T01:19:22;11.80;;;5.85;;
21780;SDS011;52576;53.614;9.894;2023-02-12T01:21:26;12.55;;;5.88;;
21780;SDS011;52576;53.614;9.894;2023-02-12T01:23:31;13.80;;;6.28;;
21780;SDS011;52576;53.614;9.894;2023-02-12T01:25:36;12.38;;;6.43;;
21780;SDS011;52576;53.614;9.894;2023-02-12T01:27:39;15.13;;;6.60;;
21780;SDS011;52576;53.614;9.894;2023-02-12T01:29:46;16.88;;;7.38;;
21780;SDS011;52576;53.614;9.894;2023-02-12T01:31:49;14.68;;;7.35;;
21780;SDS011;52576;53.614;9.894;2023-02-12T01:33:53;16.80;;;7.43;;
21780;SDS011;52576;53.614;9.894;2023-02-12T01:35:58;15.88;;;7.55;;
21780;SDS011;52576;53.614;9.894;2023-02-12T01:38:01;19.48;;;7.80;;
21780;SDS011;52576;53.614;9.894;2023-02-12T01:40:05;22.60;;;7.70;;
21780;SDS011;52576;53.614;9.894;2023-02-12T01:42:09;16.42;;;7.70;;
21780;SDS011;52576;53.614;9.894;2023-02-12T01:44:15;19.20;;;8.30;;
21780;SDS011;52576;53.614;9.894;2023-02-12T01:46:21;18.17;;;7.63;;
21780;SDS011;52576;53.614;9.894;2023-02-12T01:48:24;16.80;;;7.72;;
21780;SDS011;52576;53.614;9.894;2023-02-12T01:50:30;20.70;;;7.82;;
21780;SDS011;52576;53.614;9.894;2023-02-12T01:52:33;18.35;;;8.77;;
21780;SDS011;52576;53.614;9.894;2023-02-12T01:54:40;22.23;;;8.90;;
21780;SDS011;52576;53.614;9.894;2023-02-12T01:56:45;17.83;;;8.73;;
21780;SDS011;52576;53.614;9.894;2023-02-12T01:58:49;16.67;;;7.97;;
21780;SDS011;52576;53.614;9.894;2023-02-12T02:00:54;16.90;;;7.57;;
21780;SDS011;52576;53.614;9.894;2023-02-12T02:02:59;17.80;;;7.57;;
21780;SDS011;52576;53.614;9.894;2023-02-12T02:05:03;14.23;;;6.82;;
21780;SDS011;52576;53.614;9.894;2023-02-12T02:07:08;14.48;;;6.63;;
21780;SDS011;52576;53.614;9.894;2023-02-12T02:09:12;15.73;;;7.07;;
21780;SDS011;52576;53.614;9.894;2023-02-12T02:11:17;19.50;;;7.10;;
21780;SDS011;52576;53.614;9.894;2023-02-12T02:13:39;14.93;;;7.05;;
21780;SDS011;52576;53.614;9.894;2023-02-12T02:16:01;16.98;;;7.43;;
21780;SDS011;52576;53.614;9.894;2023-02-12T02:18:14;15.57;;;7.25;;
21780;SDS011;52576;53.614;9.894;2023-02-12T02:20:29;20.90;;;8.52;;
21780;SDS011;52576;53.614;9.894;2023-02-12T02:22:51;17.45;;;8.43;;
21780;SDS011;52576;53.614;9.894;2023-02-12T02:25:14;18.58;;;8.10;;
21780;SDS011;52576;53.614;9.894;2023-02-12T02:27:39;16.45;;;7.43;;
21780;SDS011;52576;53.614;9.894;2023-02-12T02:32:36;17.10;;;6.97;;
21780;SDS011;52576;53.614;9.894;2023-02-12T02:34:46;18.92;;;7.18;;
21780;SDS011;52576;53.614;9.894;2023-02-12T02:36:58;15.73;;;6.45;;
21780;SDS011;52576;53.614;9.894;2023-02-12T02:39:06;13.80;;;6.03;;
21780;SDS011;52576;53.614;9.894;2023-02-12T02:41:16;14.07;;;5.93;;
21780;SDS011;52576;53.614;9.894;2023-02-12T02:43:25;15.75;;;6.45;;
21780;SDS011;52576;53.614;9.894;2023-02-12T02:45:33;18.17;;;7.03;;
21780;SDS011;52576;53.614;9.894;2023-02-12T02:47:43;17.40;;;6.82;;
21780;SDS011;52576;53.614;9.894;2023-02-12T02:49:52;16.60;;;6.80;;
21780;SDS011;52576;53.614;9.894;2023-02-12T02:52:00;14.10;;;5.68;;
21780;SDS011;52576;53.614;9.894;2023-02-12T02:54:10;14.75;;;6.30;;
21780;SDS011;52576;53.614;9.894;2023-02-12T02:56:16;19.60;;;7.03;;
21780;SDS011;52576;53.614;9.894;2023-02-12T02:58:23;16.10;;;6.10;;
21780;SDS011;52576;53.614;9.894;2023-02-12T03:00:30;19.10;;;6.82;;
21780;SDS011;52576;53.614;9.894;2023-02-12T03:02:39;19.83;;;7.40;;
21780;SDS011;52576;53.614;9.894;2023-02-12T03:04:48;19.20;;;6.93;;
21780;SDS011;52576;53.614;9.894;2023-02-12T03:06:57;19.80;;;7.35;;
21780;SDS011;52576;53.614;9.894;2023-02-12T03:09:05;17.23;;;7.35;;
21780;SDS011;52576;53.614;9.894;2023-02-12T03:11:15;23.58;;;7.97;;
21780;SDS011;52576;53.614;9.894;2023-02-12T03:13:26;20.67;;;8.05;;
21780;SDS011;52576;53.614;9.894;2023-02-12T03:15:38;28.25;;;8.20;;
21780;SDS011;52576;53.614;9.894;2023-02-12T03:17:44;19.88;;;8.30;;
21780;SDS011;52576;53.614;9.894;2023-02-12T03:19:50;26.55;;;8.48;;
21780;SDS011;52576;53.614;9.894;2023-02-12T03:21:59;23.13;;;7.93;;
21780;SDS011;52576;53.614;9.894;2023-02-12T03:24:06;18.23;;;7.28;;
21780;SDS011;52576;53.614;9.894;2023-02-12T03:26:15;18.25;;;6.13;;
21780;SDS011;52576;53.614;9.894;2023-02-12T03:28:25;19.25;;;7.00;;
21780;SDS011;52576;53.614;9.894;2023-02-12T03:30:33;16.05;;;6.55;;
21780;SDS011;52576;53.614;9.894;2023-02-12T03:32:45;29.77;;;6.13;;
21780;SDS011;52576;53.614;9.894;2023-02-12T03:34:58;16.98;;;5.88;;
21780;SDS011;52576;53.614;9.894;2023-02-12T03:37:11;20.90;;;6.22;;
21780;SDS011;52576;53.614;9.894;2023-02-12T03:39:20;26.70;;;5.47;;
21780;SDS011;52576;53.614;9.894;2023-02-12T03:41:31;18.13;;;5.18;;
21780;SDS011;52576;53.614;9.894;2023-02-12T03:43:43;15.73;;;4.80;;
21780;SDS011;52576;53.614;9.894;2023-02-12T03:45:54;21.75;;;4.82;;
21780;SDS011;52576;53.614;9.894;2023-02-12T03:48:01;24.10;;;4.90;;
21780;SDS011;52576;53.614;9.894;2023-02-12T03:52:16;25.13;;;4.75;;
21780;SDS011;52576;53.614;9.894;2023-02-12T03:54:19;23.83;;;5.05;;
21780;SDS011;52576;53.614;9.894;2023-02-12T03:56:24;22.52;;;4.78;;
21780;SDS011;52576;53.614;9.894;2023-02-12T03:58:31;16.98;;;4.65;;
21780;SDS011;52576;53.614;9.894;2023-02-12T04:00:37;17.83;;;4.82;;
21780;SDS011;52576;53.614;9.894;2023-02-12T04:02:43;31.02;;;5.25;;
21780;SDS011;52576;53.614;9.894;2023-02-12T04:04:46;38.95;;;4.95;;
21780;SDS011;52576;53.614;9.894;2023-02-12T04:06:50;24.20;;;5.68;;
21780;SDS011;52576;53.614;9.894;2023-02-12T04:08:56;28.70;;;4.68;;
21780;SDS011;52576;53.614;9.894;2023-02-12T04:11:05;31.67;;;4.47;;
21780;SDS011;52576;53.614;9.894;2023-02-12T04:13:20;77.15;;;4.93;;
21780;SDS011;52576;53.614;9.894;2023-02-12T04:15:29;85.10;;;5.32;;
21780;SDS011;52576;53.614;9.894;2023-02-12T04:17:49;48.97;;;5.35;;
21780;SDS011;52576;53.614;9.894;2023-02-12T04:20:00;89.80;;;5.35;;
21780;SDS011;52576;53.614;9.894;2023-02-12T04:22:13;67.28;;;5.55;;
21780;SDS011;52576;53.614;9.894;2023-02-12T04:24:26;56.00;;;5.18;;
21780;SDS011;52576;53.614;9.894;2023-02-12T04:29:11;51.45;;;5.65;;
21780;SDS011;52576;53.614;9.894;2023-02-12T04:31:22;127.75;;;6.47;;
21780;SDS011;52576;53.614;9.894;2023-02-12T04:33:39;240.75;;;6.85;;
21780;SDS011;52576;53.614;9.894;2023-02-12T04:35:47;147.52;;;6.57;;
21780;SDS011;52576;53.614;9.894;2023-02-12T04:37:58;97.95;;;6.22;;
21780;SDS011;52576;53.614;9.894;2023-02-12T04:40:09;222.93;;;8.27;;
21780;SDS011;52576;53.614;9.894;2023-02-12T04:42:15;244.07;;;7.95;;
21780;SDS011;52576;53.614;9.894;2023-02-12T04:44:21;245.48;;;8.80;;
21780;SDS011;52576;53.614;9.894;2023-02-12T04:46:26;141.45;;;7.75;;
21780;SDS011;52576;53.614;9.894;2023-02-12T04:48:29;131.00;;;7.53;;
21780;SDS011;52576;53.614;9.894;2023-02-12T04:50:37;73.75;;;7.57;;
21780;SDS011;52576;53.614;9.894;2023-02-12T04:52:42;376.23;;;12.40;;
21780;SDS011;52576;53.614;9.894;2023-02-12T04:54:45;306.67;;;11.50;;
21780;SDS011;52576;53.614;9.894;2023-02-12T04:56:48;251.60;;;11.18;;
21780;SDS011;52576;53.614;9.894;2023-02-12T04:58:51;82.55;;;9.50;;
21780;SDS011;52576;53.614;9.894;2023-02-12T05:00:58;102.60;;;12.02;;
21780;SDS011;52576;53.614;9.894;2023-02-12T05:03:01;224.65;;;13.38;;
21780;SDS011;52576;53.614;9.894;2023-02-12T05:05:05;52.95;;;12.45;;
21780;SDS011;52576;53.614;9.894;2023-02-12T05:07:10;71.38;;;13.55;;
21780;SDS011;52576;53.614;9.894;2023-02-12T05:09:14;97.03;;;15.38;;
21780;SDS011;52576;53.614;9.894;2023-02-12T05:11:19;117.47;;;14.98;;
21780;SDS011;52576;53.614;9.894;2023-02-12T05:13:22;139.70;;;14.73;;
21780;SDS011;52576;53.614;9.894;2023-02-12T05:15:25;72.00;;;15.30;;
21780;SDS011;52576;53.614;9.894;2023-02-12T05:17:28;119.60;;;17.25;;
21780;SDS011;52576;53.614;9.894;2023-02-12T05:19:31;91.35;;;16.90;;
21780;SDS011;52576;53.614;9.894;2023-02-12T05:21:34;114.55;;;18.23;;
21780;SDS011;52576;53.614;9.894;2023-02-12T05:23:40;105.40;;;18.27;;
21780;SDS011;52576;53.614;9.894;2023-02-12T05:25:43;460.27;;;23.70;;
21780;SDS011;52576;53.614;9.894;2023-02-12T05:27:46;101.55;;;17.58;;
21780;SDS011;52576;53.614;9.894;2023-02-12T05:29:49;63.85;;;17.52;;
21780;SDS011;52576;53.614;9.894;2023-02-12T05:31:52;108.10;;;18.50;;
21780;SDS011;52576;53.614;9.894;2023-02-12T05:33:56;152.52;;;19.27;;
21780;SDS011;52576;53.614;9.894;2023-02-12T05:36:01;209.85;;;19.98;;
21780;SDS011;52576;53.614;9.894;2023-02-12T05:38:05;139.38;;;18.75;;
21780;SDS011;52576;53.614;9.894;2023-02-12T05:40:10;236.00;;;19.23;;
21780;SDS011;52576;53.614;9.894;2023-02-12T05:42:14;489.63;;;24.00;;
21780;SDS011;52576;53.614;9.894;2023-02-12T05:44:17;148.35;;;20.02;;
21780;SDS011;52576;53.614;9.894;2023-02-12T05:46:20;135.18;;;18.63;;
21780;SDS011;52576;53.614;9.894;2023-02-12T05:48:24;270.80;;;20.67;;
21780;SDS011;52576;53.614;9.894;2023-02-12T05:50:27;142.48;;;19.20;;
21780;SDS011;52576;53.614;9.894;2023-02-12T05:52:33;157.00;;;19.27;;
21780;SDS011;52576;53.614;9.894;2023-02-12T05:54:36;363.45;;;22.95;;
21780;SDS011;52576;53.614;9.894;2023-02-12T05:56:42;154.27;;;19.05;;
21780;SDS011;52576;53.614;9.894;2023-02-12T05:58:46;74.35;;;18.25;;
21780;SDS011;52576;53.614;9.894;2023-02-12T06:00:53;109.43;;;18.23;;
21780;SDS011;52576;53.614;9.894;2023-02-12T06:02:56;260.42;;;19.02;;
21780;SDS011;52576;53.614;9.894;2023-02-12T06:05:00;126.30;;;17.02;;
21780;SDS011;52576;53.614;9.894;2023-02-12T06:07:03;123.82;;;17.15;;
21780;SDS011;52576;53.614;9.894;2023-02-12T06:09:07;140.02;;;18.17;;
21780;SDS011;52576;53.614;9.894;2023-02-12T06:11:12;71.68;;;17.38;;
21780;SDS011;52576;53.614;9.894;2023-02-12T06:13:17;147.18;;;17.60;;
21780;SDS011;52576;53.614;9.894;2023-02-12T06:15:20;147.00;;;17.35;;
21780;SDS011;52576;53.614;9.894;2023-02-12T06:17:23;92.25;;;17.00;;
21780;SDS011;52576;53.614;9.894;2023-02-12T06:19:26;313.08;;;19.90;;
21780;SDS011;52576;53.614;9.894;2023-02-12T06:21:30;145.20;;;16.35;;
21780;SDS011;52576;53.614;9.894;2023-02-12T06:23:33;193.52;;;17.58;;
21780;SDS011;52576;53.614;9.894;2023-02-12T06:25:37;204.00;;;17.63;;
21780;SDS011;52576;53.614;9.894;2023-02-12T06:27:40;195.88;;;17.17;;
21780;SDS011;52576;53.614;9.894;2023-02-12T06:29:44;237.13;;;18.75;;
21780;SDS011;52576;53.614;9.894;2023-02-12T06:31:47;172.93;;;16.40;;
21780;SDS011;52576;53.614;9.894;2023-02-12T06:33:51;169.27;;;17.27;;
21780;SDS011;52576;53.614;9.894;2023-02-12T06:35:55;96.65;;;17.15;;
21780;SDS011;52576;53.614;9.894;2023-02-12T06:37:58;101.60;;;16.88;;
21780;SDS011;52576;53.614;9.894;2023-02-12T06:40:01;216.68;;;18.85;;
21780;SDS011;52576;53.614;9.894;2023-02-12T06:42:04;270.83;;;18.83;;
21780;SDS011;52576;53.614;9.894;2023-02-12T06:44:09;68.47;;;17.00;;
21780;SDS011;52576;53.614;9.894;2023-02-12T06:46:14;186.20;;;18.25;;
21780;SDS011;52576;53.614;9.894;2023-02-12T06:48:17;212.57;;;19.15;;
21780;SDS011;52576;53.614;9.894;2023-02-12T06:50:20;139.65;;;17.95;;
21780;SDS011;52576;53.614;9.894;2023-02-12T06:52:24;472.00;;;23.77;;
21780;SDS011;52576;53.614;9.894;2023-02-12T06:54:27;439.35;;;23.05;;
21780;SDS011;52576;53.614;9.894;2023-02-12T06:56:30;245.05;;;18.60;;
21780;SDS011;52576;53.614;9.894;2023-02-12T06:58:33;86.53;;;18.42;;
21780;SDS011;52576;53.614;9.894;2023-02-12T07:00:36;208.23;;;19.45;;
21780;SDS011;52576;53.614;9.894;2023-02-12T07:02:40;93.13;;;18.58;;
21780;SDS011;52576;53.614;9.894;2023-02-12T07:04:43;325.92;;;21.23;;
21780;SDS011;52576;53.614;9.894;2023-02-12T07:06:46;114.07;;;18.73;;
21780;SDS011;52576;53.614;9.894;2023-02-12T07:08:49;135.15;;;19.00;;
21780;SDS011;52576;53.614;9.894;2023-02-12T07:10:53;74.25;;;18.77;;
21780;SDS011;52576;53.614;9.894;2023-02-12T07:12:56;154.88;;;18.05;;
21780;SDS011;52576;53.614;9.894;2023-02-12T07:14:59;136.32;;;19.13;;
21780;SDS011;52576;53.614;9.894;2023-02-12T07:17:02;223.18;;;20.52;;
21780;SDS011;52576;53.614;9.894;2023-02-12T07:19:07;86.82;;;17.92;;
21780;SDS011;52576;53.614;9.894;2023-02-12T07:21:14;97.25;;;18.77;;
21780;SDS011;52576;53.614;9.894;2023-02-12T07:23:18;95.47;;;19.17;;
21780;SDS011;52576;53.614;9.894;2023-02-12T07:25:21;219.02;;;20.60;;
21780;SDS011;52576;53.614;9.894;2023-02-12T07:27:24;528.47;;;27.33;;
21780;SDS011;52576;53.614;9.894;2023-02-12T07:29:27;131.85;;;19.02;;
21780;SDS011;52576;53.614;9.894;2023-02-12T07:31:30;111.22;;;19.05;;
21780;SDS011;52576;53.614;9.894;2023-02-12T07:33:34;111.50;;;19.50;;
21780;SDS011;52576;53.614;9.894;2023-02-12T07:35:39;154.38;;;19.65;;
21780;SDS011;52576;53.614;9.894;2023-02-12T07:37:42;91.10;;;20.48;;
21780;SDS011;52576;53.614;9.894;2023-02-12T07:39:45;305.55;;;22.13;;
21780;SDS011;52576;53.614;9.894;2023-02-12T07:41:48;126.88;;;20.83;;
21780;SDS011;52576;53.614;9.894;2023-02-12T07:43:52;136.13;;;20.13;;
21780;SDS011;52576;53.614;9.894;2023-02-12T07:46:04;154.52;;;21.20;;
21780;SDS011;52576;53.614;9.894;2023-02-12T07:48:08;103.97;;;20.42;;
21780;SDS011;52576;53.614;9.894;2023-02-12T07:50:11;294.95;;;22.77;;
21780;SDS011;52576;53.614;9.894;2023-02-12T07:52:16;143.70;;;20.02;;
21780;SDS011;52576;53.614;9.894;2023-02-12T07:54:19;161.18;;;21.27;;
21780;SDS011;52576;53.614;9.894;2023-02-12T07:56:22;446.15;;;25.98;;
21780;SDS011;52576;53.614;9.894;2023-02-12T07:58:30;167.38;;;22.65;;
21780;SDS011;52576;53.614;9.894;2023-02-12T08:00:33;171.82;;;23.05;;
21780;SDS011;52576;53.614;9.894;2023-02-12T08:02:36;166.30;;;22.38;;
21780;SDS011;52576;53.614;9.894;2023-02-12T08:04:39;171.80;;;21.77;;
21780;SDS011;52576;53.614;9.894;2023-02-12T08:06:43;145.68;;;22.33;;
21780;SDS011;52576;53.614;9.894;2023-02-12T08:08:49;90.28;;;22.17;;
21780;SDS011;52576;53.614;9.894;2023-02-12T08:10:54;117.78;;;22.60;;
21780;SDS011;52576;53.614;9.894;2023-02-12T08:12:58;201.93;;;24.33;;
21780;SDS011;52576;53.614;9.894;2023-02-12T08:15:01;281.77;;;25.65;;
21780;SDS011;52576;53.614;9.894;2023-02-12T08:17:04;77.45;;;21.90;;
21780;SDS011;52576;53.614;9.894;2023-02-12T08:19:08;138.48;;;23.23;;
21780;SDS011;52576;53.614;9.894;2023-02-12T08:21:22;84.35;;;22.35;;
21780;SDS011;52576;53.614;9.894;2023-02-12T08:23:26;94.30;;;22.88;;
21780;SDS011;52576;53.614;9.894;2023-02-12T08:25:30;71.00;;;23.13;;
21780;SDS011;52576;53.614;9.894;2023-02-12T08:27:34;64.20;;;21.60;;
21780;SDS011;52576;53.614;9.894;2023-02-12T08:29:37;63.97;;;22.73;;
21780;SDS011;52576;53.614;9.894;2023-02-12T08:31:40;62.15;;;21.75;;
21780;SDS011;52576;53.614;9.894;2023-02-12T08:33:44;59.47;;;23.50;;
21780;SDS011;52576;53.614;9.894;2023-02-12T08:35:49;56.63;;;21.48;;
21780;SDS011;52576;53.614;9.894;2023-02-12T08:37:52;51.45;;;21.30;;
21780;SDS011;52576;53.614;9.894;2023-02-12T08:39:55;49.10;;;20.48;;
21780;SDS011;52576;53.614;9.894;2023-02-12T08:42:00;57.28;;;20.73;;
21780;SDS011;52576;53.614;9.894;2023-02-12T08:44:06;50.20;;;19.60;;
21780;SDS011;52576;53.614;9.894;2023-02-12T08:46:11;50.45;;;20.70;;
21780;SDS011;52576;53.614;9.894;2023-02-12T08:48:16;49.55;;;19.60;;
21780;SDS011;52576;53.614;9.894;2023-02-12T08:50:21;45.33;;;19.67;;
21780;SDS011;52576;53.614;9.894;2023-02-12T08:52:24;49.53;;;20.65;;
21780;SDS011;52576;53.614;9.894;2023-02-12T08:54:27;47.45;;;19.98;;
21780;SDS011;52576;53.614;9.894;2023-02-12T08:56:33;40.33;;;19.17;;
21780;SDS011;52576;53.614;9.894;2023-02-12T08:58:38;39.90;;;19.13;;
21780;SDS011;52576;53.614;9.894;2023-02-12T09:00:42;46.60;;;20.38;;
21780;SDS011;52576;53.614;9.894;2023-02-12T09:02:46;39.38;;;18.83;;
21780;SDS011;52576;53.614;9.894;2023-02-12T09:04:50;47.13;;;19.00;;
21780;SDS011;52576;53.614;9.894;2023-02-12T09:06:53;43.50;;;19.15;;
21780;SDS011;52576;53.614;9.894;2023-02-12T09:08:57;45.10;;;19.15;;
21780;SDS011;52576;53.614;9.894;2023-02-12T09:11:02;50.05;;;20.15;;
21780;SDS011;52576;53.614;9.894;2023-02-12T09:13:07;44.40;;;19.17;;
21780;SDS011;52576;53.614;9.894;2023-02-12T09:15:12;41.80;;;18.08;;
21780;SDS011;52576;53.614;9.894;2023-02-12T09:17:15;39.67;;;17.48;;
21780;SDS011;52576;53.614;9.894;2023-02-12T09:19:18;35.22;;;17.52;;
21780;SDS011;52576;53.614;9.894;2023-02-12T09:21:22;47.25;;;19.75;;
21780;SDS011;52576;53.614;9.894;2023-02-12T09:23:25;41.97;;;18.85;;
21780;SDS011;52576;53.614;9.894;2023-02-12T09:25:28;41.50;;;18.38;;
21780;SDS011;52576;53.614;9.894;2023-02-12T09:27:32;40.03;;;18.30;;
21780;SDS011;52576;53.614;9.894;2023-02-12T09:29:35;40.22;;;18.10;;
21780;SDS011;52576;53.614;9.894;2023-02-12T09:31:39;40.35;;;18.80;;
21780;SDS011;52576;53.614;9.894;2023-02-12T09:33:43;45.38;;;20.38;;
21780;SDS011;52576;53.614;9.894;2023-02-12T09:35:49;44.13;;;20.02;;
21780;SDS011;52576;53.614;9.894;2023-02-12T09:37:52;46.40;;;20.77;;
21780;SDS011;52576;53.614;9.894;2023-02-12T09:39:55;47.88;;;20.63;;
21780;SDS011;52576;53.614;9.894;2023-02-12T09:42:14;49.42;;;21.02;;
21780;SDS011;52576;53.614;9.894;2023-02-12T09:44:28;48.53;;;20.00;;
21780;SDS011;52576;53.614;9.894;2023-02-12T09:46:41;44.03;;;20.42;;
21780;SDS011;52576;53.614;9.894;2023-02-12T09:48:52;44.45;;;18.63;;
21780;SDS011;52576;53.614;9.894;2023-02-12T09:51:02;41.22;;;20.13;;
21780;SDS011;52576;53.614;9.894;2023-02-12T09:53:09;40.60;;;19.20;;
21780;SDS011;52576;53.614;9.894;2023-02-12T09:55:15;44.38;;;20.38;;
21780;SDS011;52576;53.614;9.894;2023-02-12T09:57:22;48.33;;;18.83;;
21780;SDS011;52576;53.614;9.894;2023-02-12T09:59:31;49.03;;;19.77;;
21780;SDS011;52576;53.614;9.894;2023-02-12T10:01:39;45.17;;;19.90;;
21780;SDS011;52576;53.614;9.894;2023-02-12T10:03:43;41.60;;;18.33;;
21780;SDS011;52576;53.614;9.894;2023-02-12T10:05:48;42.47;;;19.02;;
21780;SDS011;52576;53.614;9.894;2023-02-12T10:07:58;41.97;;;18.08;;
21780;SDS011;52576;53.614;9.894;2023-02-12T10:10:19;50.47;;;19.63;;
21780;SDS011;52576;53.614;9.894;2023-02-12T10:12:33;40.47;;;18.60;;
21780;SDS011;52576;53.614;9.894;2023-02-12T10:14:46;43.45;;;19.23;;
21780;SDS011;52576;53.614;9.894;2023-02-12T10:17:13;44.72;;;18.65;;
21780;SDS011;52576;53.614;9.894;2023-02-12T10:19:28;44.33;;;18.90;;
21780;SDS011;52576;53.614;9.894;2023-02-12T10:21:42;40.28;;;18.73;;
21780;SDS011;52576;53.614;9.894;2023-02-12T10:24:02;44.58;;;18.67;;
21780;SDS011;52576;53.614;9.894;2023-02-12T10:26:17;39.30;;;18.17;;
21780;SDS011;52576;53.614;9.894;2023-02-12T10:28:24;38.33;;;17.88;;
21780;SDS011;52576;53.614;9.894;2023-02-12T10:30:33;39.17;;;17.48;;
21780;SDS011;52576;53.614;9.894;2023-02-12T10:32:45;39.70;;;17.27;;
21780;SDS011;52576;53.614;9.894;2023-02-12T10:34:52;39.38;;;17.83;;
21780;SDS011;52576;53.614;9.894;2023-02-12T10:37:00;39.50;;;17.15;;
21780;SDS011;52576;53.614;9.894;2023-02-12T10:39:11;39.83;;;17.27;;
21780;SDS011;52576;53.614;9.894;2023-02-12T10:41:20;38.95;;;17.40;;
21780;SDS011;52576;53.614;9.894;2023-02-12T10:43:26;33.38;;;16.25;;
21780;SDS011;52576;53.614;9.894;2023-02-12T10:45:30;40.13;;;17.02;;
21780;SDS011;52576;53.614;9.894;2023-02-12T10:47:35;34.85;;;16.42;;
21780;SDS011;52576;53.614;9.894;2023-02-12T10:49:39;31.58;;;15.32;;
21780;SDS011;52576;53.614;9.894;2023-02-12T10:51:47;38.30;;;16.23;;
21780;SDS011;52576;53.614;9.894;2023-02-12T10:53:58;36.17;;;16.10;;
21780;SDS011;52576;53.614;9.894;2023-02-12T10:56:38;34.17;;;16.17;;
21780;SDS011;52576;53.614;9.894;2023-02-12T10:58:49;35.92;;;16.27;;
21780;SDS011;52576;53.614;9.894;2023-02-12T11:00:56;35.10;;;16.08;;
21780;SDS011;52576;53.614;9.894;2023-02-12T11:03:03;39.97;;;18.08;;
21780;SDS011;52576;53.614;9.894;2023-02-12T11:05:23;40.53;;;17.17;;
21780;SDS011;52576;53.614;9.894;2023-02-12T11:07:27;39.50;;;16.60;;
21780;SDS011;52576;53.614;9.894;2023-02-12T11:09:33;41.22;;;17.60;;
21780;SDS011;52576;53.614;9.894;2023-02-12T11:11:41;36.47;;;16.63;;
21780;SDS011;52576;53.614;9.894;2023-02-12T11:13:45;37.83;;;17.05;;
21780;SDS011;52576;53.614;9.894;2023-02-12T11:15:55;43.03;;;17.77;;
21780;SDS011;52576;53.614;9.894;2023-02-12T11:17:59;38.85;;;17.70;;
21780;SDS011;52576;53.614;9.894;2023-02-12T11:20:18;42.60;;;17.20;;
21780;SDS011;52576;53.614;9.894;2023-02-12T11:22:26;37.92;;;16.38;;
21780;SDS011;52576;53.614;9.894;2023-02-12T11:24:30;33.72;;;16.02;;
21780;SDS011;52576;53.614;9.894;2023-02-12T11:26:34;32.45;;;15.77;;
21780;SDS011;52576;53.614;9.894;2023-02-12T11:28:37;32.75;;;15.30;;
21780;SDS011;52576;53.614;9.894;2023-02-12T11:33:16;31.73;;;14.90;;
21780;SDS011;52576;53.614;9.894;2023-02-12T11:35:26;28.25;;;14.55;;
21780;SDS011;52576;53.614;9.894;2023-02-12T11:37:35;31.95;;;14.38;;
21780;SDS011;52576;53.614;9.894;2023-02-12T11:39:45;29.30;;;14.18;;
21780;SDS011;52576;53.614;9.894;2023-02-12T11:41:50;29.05;;;14.35;;
21780;SDS011;52576;53.614;9.894;2023-02-12T11:43:55;36.75;;;14.85;;
21780;SDS011;52576;53.614;9.894;2023-02-12T11:45:58;35.63;;;15.45;;
21780;SDS011;52576;53.614;9.894;2023-02-12T11:48:02;38.75;;;19.60;;
21780;SDS011;52576;53.614;9.894;2023-02-12T11:50:21;36.67;;;15.60;;
21780;SDS011;52576;53.614;9.894;2023-02-12T11:52:30;41.58;;;17.05;;
21780;SDS011;52576;53.614;9.894;2023-02-12T11:54:37;41.05;;;16.58;;
21780;SDS011;52576;53.614;9.894;2023-02-12T11:56:44;37.28;;;15.43;;
21780;SDS011;52576;53.614;9.894;2023-02-12T11:58:49;32.83;;;14.10;;
21780;SDS011;52576;53.614;9.894;2023-02-12T12:00:55;31.20;;;14.27;;
21780;SDS011;52576;53.614;9.894;2023-02-12T12:03:08;36.05;;;15.48;;
21780;SDS011;52576;53.614;9.894;2023-02-12T12:05:15;30.20;;;14.15;;
21780;SDS011;52576;53.614;9.894;2023-02-12T12:07:21;30.42;;;14.00;;
21780;SDS011;52576;53.614;9.894;2023-02-12T12:09:29;33.38;;;14.02;;
21780;SDS011;52576;53.614;9.894;2023-02-12T12:11:40;34.53;;;14.73;;
21780;SDS011;52576;53.614;9.894;2023-02-12T12:13:52;27.25;;;13.57;;
21780;SDS011;52576;53.614;9.894;2023-02-12T12:16:03;30.65;;;13.90;;
21780;SDS011;52576;53.614;9.894;2023-02-12T12:18:30;34.13;;;14.15;;
21780;SDS011;52576;53.614;9.894;2023-02-12T12:20:57;26.15;;;13.63;;
21780;SDS011;52576;53.614;9.894;2023-02-12T12:23:07;24.15;;;12.30;;
21780;SDS011;52576;53.614;9.894;2023-02-12T12:25:19;24.35;;;13.82;;
21780;SDS011;52576;53.614;9.894;2023-02-12T12:27:30;24.23;;;12.80;;
21780;SDS011;52576;53.614;9.894;2023-02-12T12:29:56;24.42;;;11.13;;
21780;SDS011;52576;53.614;9.894;2023-02-12T12:32:08;21.75;;;11.38;;